Cdry Blue — ICOB — position and weather

sailwx.info

Track history (hours):
 
Tides and Currents Weather Stations Pressure Air Temp Water Temp Dewpoint Dewpoint Depression Visibility Wind Speed Wind Dir Waves Ship Positions

Cdry Blue

Last reported at 2016-Jun-25 19:25 UTC. Time now 2016-Jun-26 10:14 UTC.
Position N 37°52' E 015°56'.

Length 108 m; draft 7 m.

Type: Cargo ship. MMSI: 247289300.

Date/timePositionNaut miles runAvg speedWind from/ knotsBaromVisibWave heightAir tempDewpointWater temp
2016-Jun-25 19:25N 37°52' E 015°56'8 9.4
2016-Jun-25 18:33N 37°53' E 015°46'9 8.6
2016-Jun-25 17:33N 37°57' E 015°36'1010.3
2016-Jun-25 16:33N 38°08' E 015°35'1010.3
2016-Jun-25 15:33N 38°17' E 015°40'1010.0
2016-Jun-25 14:33N 38°20' E 015°28'1110.7
2016-Jun-25 13:33N 38°20' E 015°14'1010.4
2016-Jun-25 12:33N 38°19' E 015°01'1110.5
2016-Jun-25 11:33N 38°18' E 014°48'1010.3
2016-Jun-25 10:33N 38°18' E 014°34'2410.2
2016-Jun-25 08:13N 38°18' E 014°04'710.1
2016-Jun-25 07:32N 38°18' E 013°55'10 9.9
2016-Jun-25 06:33N 38°17' E 013°43'1110.5
2016-Jun-25 05:33N 38°17' E 013°30'1010.3
2016-Jun-25 04:33N 38°17' E 013°16'9 9.6
2016-Jun-25 03:33N 38°16' E 013°04'10 9.6
2016-Jun-25 02:32N 38°16' E 012°52'5310.2
2016-Jun-24 21:20N 38°14' E 011°45'2110.2
2016-Jun-24 19:14N 38°13' E 011°17'8510.9
2016-Jun-24 11:26N 38°10' E 009°30'3311.0
2016-Jun-24 08:27N 38°08' E 008°48'1011.0
2016-Jun-24 07:30N 38°08' E 008°35'1411.6
2016-Jun-24 06:16N 38°08' E 008°17'16710.4
2016-Jun-23 14:18N 37°42' E 004°48'7 9.7
2016-Jun-23 13:33N 37°40' E 004°39'22 9.9
2016-Jun-23 11:21N 37°36' E 004°12'8 9.9
2016-Jun-23 10:33N 37°35' E 004°03'14 9.9
2016-Jun-23 09:07N 37°32' E 003°45'4610.0
2016-Jun-23 04:29N 37°24' E 002°48'9 9.7
2016-Jun-23 03:33N 37°23' E 002°36'9 9.4
2016-Jun-23 02:33N 37°21' E 002°25'9 9.1
2016-Jun-23 01:33N 37°20' E 002°13'9 9.0
2016-Jun-23 00:32N 37°18' E 002°02'23 9.5
2016-Jun-22 22:08N 37°14' E 001°34'6 9.4
2016-Jun-22 21:30N 37°13' E 001°26'9 9.6
2016-Jun-22 20:33N 37°12' E 001°15'10 9.9
2016-Jun-22 19:33N 37°10' E 001°03'10 9.7
2016-Jun-22 18:33N 37°08' E 000°51'9 9.3
2016-Jun-22 17:33N 37°07' E 000°39'9 9.1
2016-Jun-22 16:33N 37°05' E 000°28'10 9.1
2016-Jun-22 15:26N 37°04' E 000°16'8 9.2
2016-Jun-22 14:33N 37°02' E 000°05'9 9.3
2016-Jun-22 13:33N 36°59' W 000°06'25310.0
2016-Jun-21 12:07N 36°01' W 005°12'611.0
2016-Jun-21 11:33N 35°59' W 005°20'  
2016-Jun-18 07:28N 35°58' W 005°36'9 9.8
2016-Jun-18 06:34N 36°00' W 005°26'10 9.7
2016-Jun-18 05:33N 36°02' W 005°14'12211.1
2016-Jun-17 18:34N 36°20' W 002°44'9211.3
2016-Jun-17 10:26N 37°11' W 001°09'1011.4
2016-Jun-17 09:33N 37°17' W 000°59'1211.7
2016-Jun-17 08:33N 37°25' W 000°48'1211.6
2016-Jun-17 07:34N 37°32' W 000°37'1211.8
2016-Jun-17 06:34N 37°42' W 000°28'2411.8
2016-Jun-17 04:33N 38°01' W 000°11'97 5.0
2016-Jun-16 09:07N 39°39' W 000°13'5110.4
2016-Jun-16 04:15N 40°07' E 000°42'911.8
2016-Jun-16 03:29N 40°12' E 000°51'1112.3
2016-Jun-16 02:33N 40°20' E 001°03'1212.5
2016-Jun-16 01:33N 40°28' E 001°15'1312.6
2016-Jun-16 00:33N 40°36' E 001°28'1312.6
2016-Jun-15 23:33N 40°44' E 001°41'1312.8
2016-Jun-15 22:33N 40°54' E 001°52'1313.0
2016-Jun-15 21:33N 41°05' E 002°01'1412.7
2016-Jun-15 20:29N 41°16' E 002°10'  
Track history (hours):
 
Tides and Currents Weather Stations Pressure Air Temp Water Temp Dewpoint Dewpoint Depression Visibility Wind Speed Wind Dir Waves Ship Positions

Cdry Blue

Last reported at 2016-Jun-25 19:25 UTC. Time now 2016-Jun-26 10:14 UTC.
Position N 37°52' E 015°56'.

Length 108 m; draft 7 m.

Type: Cargo ship. MMSI: 247289300.

Date/timePositionNaut miles runAvg speedWind from/ knotsBaromVisibWave heightAir tempDewpointWater temp
2016-Jun-25 19:25N 37°52' E 015°56'8 9.4
2016-Jun-25 18:33N 37°53' E 015°46'9 8.6
2016-Jun-25 17:33N 37°57' E 015°36'1010.3
2016-Jun-25 16:33N 38°08' E 015°35'1010.3
2016-Jun-25 15:33N 38°17' E 015°40'1010.0
2016-Jun-25 14:33N 38°20' E 015°28'1110.7
2016-Jun-25 13:33N 38°20' E 015°14'1010.4
2016-Jun-25 12:33N 38°19' E 015°01'1110.5
2016-Jun-25 11:33N 38°18' E 014°48'1010.3
2016-Jun-25 10:33N 38°18' E 014°34'2410.2
2016-Jun-25 08:13N 38°18' E 014°04'710.1
2016-Jun-25 07:32N 38°18' E 013°55'10 9.9
2016-Jun-25 06:33N 38°17' E 013°43'1110.5
2016-Jun-25 05:33N 38°17' E 013°30'1010.3
2016-Jun-25 04:33N 38°17' E 013°16'9 9.6
2016-Jun-25 03:33N 38°16' E 013°04'10 9.6
2016-Jun-25 02:32N 38°16' E 012°52'5310.2
2016-Jun-24 21:20N 38°14' E 011°45'2110.2
2016-Jun-24 19:14N 38°13' E 011°17'8510.9
2016-Jun-24 11:26N 38°10' E 009°30'3311.0
2016-Jun-24 08:27N 38°08' E 008°48'1011.0
2016-Jun-24 07:30N 38°08' E 008°35'1411.6
2016-Jun-24 06:16N 38°08' E 008°17'16710.4
2016-Jun-23 14:18N 37°42' E 004°48'7 9.7
2016-Jun-23 13:33N 37°40' E 004°39'22 9.9
2016-Jun-23 11:21N 37°36' E 004°12'8 9.9
2016-Jun-23 10:33N 37°35' E 004°03'14 9.9
2016-Jun-23 09:07N 37°32' E 003°45'4610.0
2016-Jun-23 04:29N 37°24' E 002°48'9 9.7
2016-Jun-23 03:33N 37°23' E 002°36'9 9.4
2016-Jun-23 02:33N 37°21' E 002°25'9 9.1
2016-Jun-23 01:33N 37°20' E 002°13'9 9.0
2016-Jun-23 00:32N 37°18' E 002°02'23 9.5
2016-Jun-22 22:08N 37°14' E 001°34'6 9.4
2016-Jun-22 21:30N 37°13' E 001°26'9 9.6
2016-Jun-22 20:33N 37°12' E 001°15'10 9.9
2016-Jun-22 19:33N 37°10' E 001°03'10 9.7
2016-Jun-22 18:33N 37°08' E 000°51'9 9.3
2016-Jun-22 17:33N 37°07' E 000°39'9 9.1
2016-Jun-22 16:33N 37°05' E 000°28'10 9.1
2016-Jun-22 15:26N 37°04' E 000°16'8 9.2
2016-Jun-22 14:33N 37°02' E 000°05'9 9.3
2016-Jun-22 13:33N 36°59' W 000°06'25310.0
2016-Jun-21 12:07N 36°01' W 005°12'611.0
2016-Jun-21 11:33N 35°59' W 005°20'  
2016-Jun-18 07:28N 35°58' W 005°36'9 9.8
2016-Jun-18 06:34N 36°00' W 005°26'10 9.7
2016-Jun-18 05:33N 36°02' W 005°14'12211.1
2016-Jun-17 18:34N 36°20' W 002°44'9211.3
2016-Jun-17 10:26N 37°11' W 001°09'1011.4
2016-Jun-17 09:33N 37°17' W 000°59'1211.7
2016-Jun-17 08:33N 37°25' W 000°48'1211.6
2016-Jun-17 07:34N 37°32' W 000°37'1211.8
2016-Jun-17 06:34N 37°42' W 000°28'2411.8
2016-Jun-17 04:33N 38°01' W 000°11'97 5.0
2016-Jun-16 09:07N 39°39' W 000°13'5110.4
2016-Jun-16 04:15N 40°07' E 000°42'911.8
2016-Jun-16 03:29N 40°12' E 000°51'1112.3
2016-Jun-16 02:33N 40°20' E 001°03'1212.5
2016-Jun-16 01:33N 40°28' E 001°15'1312.6
2016-Jun-16 00:33N 40°36' E 001°28'1312.6
2016-Jun-15 23:33N 40°44' E 001°41'1312.8
2016-Jun-15 22:33N 40°54' E 001°52'1313.0
2016-Jun-15 21:33N 41°05' E 002°01'1412.7
2016-Jun-15 20:29N 41°16' E 002°10'  

Dump ship's entire track history